Time;durP1;ratioP1;P1;durP2;ratioP2;P2;SDS_P1;SDS_P2;PMS_P1;PMS_P2;Temp;Humidity;BMP_temperature;BMP_pressure;BME280_temperature;BME280_humidity;BME280_pressure;Samples;Min_cycle;Max_cycle;Signal;HPM_P1;HPM_P2
2022/10/04 00:01:11;;;;;;;10.33;7.70;;;10.00;99.90;;;12.90;56.61;98330.84;5023527;28;20052;-47
2022/10/04 00:03:46;;;;;;;12.40;7.40;;;10.00;99.90;;;12.92;56.84;98331.53;5023578;28;20038;-49
2022/10/04 00:06:22;;;;;;;11.33;7.07;;;10.00;99.90;;;12.95;56.70;98335.72;5025593;28;20046;-47
2022/10/04 00:09:06;;;;;;;11.93;6.83;;;10.00;99.90;;;12.93;56.59;98333.22;5024355;28;20045;-49
2022/10/04 00:11:36;;;;;;;;;;;10.00;99.90;;;12.97;56.21;98337.25;5024803;28;20071;-47
2022/10/04 00:14:21;;;;;;;11.27;6.07;;;9.90;99.90;;;12.94;56.38;98337.56;5007887;28;19924;-47
2022/10/04 00:16:50;;;;;;;10.17;6.73;;;9.80;99.90;;;12.87;56.45;98333.00;5024028;28;20343;-48
2022/10/04 00:19:18;;;;;;;10.00;6.63;;;9.80;99.90;;;12.84;56.54;98328.00;5023455;28;20310;-51
2022/10/04 00:21:55;;;;;;;9.23;6.47;;;9.70;99.90;;;12.82;56.57;98328.16;5024140;28;20046;-48
2022/10/04 00:24:28;;;;;;;11.50;5.87;;;9.70;99.90;;;12.79;56.68;98326.63;5024109;28;20332;-51
2022/10/04 00:27:21;;;;;;;9.67;6.87;;;9.70;99.90;;;12.80;56.56;98325.63;5022644;28;20412;-49
2022/10/04 00:30:01;;;;;;;11.75;7.00;;;9.70;99.90;;;12.83;56.63;98332.47;5039831;28;20056;-48
2022/10/04 00:33:01;;;;;;;11.80;6.20;;;9.70;99.90;;;12.79;56.71;98323.97;5020867;28;20244;-47
2022/10/04 00:35:29;;;;;;;9.53;5.97;;;9.80;99.90;;;12.82;56.35;98319.31;5025397;28;20325;-49
2022/10/04 00:38:06;;;;;;;9.00;5.97;;;9.70;99.90;;;12.82;56.57;98314.78;5023472;28;20045;-50
2022/10/04 00:40:56;;;;;;;9.23;5.63;;;9.80;99.90;;;12.82;56.89;98314.78;5024145;28;20068;-49
2022/10/04 00:43:47;;;;;;;12.10;6.27;;;9.90;99.90;;;12.85;56.82;98300.25;5023398;28;20054;-46
2022/10/04 00:46:22;;;;;;;10.07;6.63;;;9.90;99.90;;;12.87;56.92;98308.94;5022770;28;20054;-52
2022/10/04 00:49:00;;;;;;;10.13;5.33;;;9.90;99.90;;;12.89;56.88;98317.66;5022640;28;20064;-48
2022/10/04 00:51:43;;;;;;;9.70;5.27;;;9.90;99.90;;;12.89;56.83;98318.50;5022792;28;20050;-50
2022/10/04 00:54:21;;;;;;;10.30;6.13;;;10.00;99.90;;;12.87;56.93;98323.19;5023765;28;20046;-45
2022/10/04 00:56:54;;;;;;;11.13;6.87;;;9.90;99.90;;;12.82;56.59;98320.13;5022232;28;20048;-46
2022/10/04 00:59:47;;;;;;;9.73;6.30;;;9.80;99.90;;;12.79;56.30;98326.63;5023797;28;20241;-48
2022/10/04 01:02:44;;;;;;;11.30;7.90;;;9.70;99.90;;;12.72;56.44;98322.91;5022360;28;20244;-48
2022/10/04 01:05:40;;;;;;;9.77;6.77;;;9.60;99.90;;;12.66;56.47;98317.34;5023387;28;20072;-47
2022/10/04 01:08:14;;;;;;;9.93;7.33;;;9.40;99.90;;;12.61;56.53;98316.00;5023471;28;20076;-48
2022/10/04 01:10:51;;;;;;;9.70;6.63;;;9.40;99.90;;;12.58;56.46;98312.78;5038339;28;20046;-48
2022/10/04 01:13:27;;;;;;;10.70;5.87;;;9.40;99.90;;;12.57;56.40;98313.81;5023317;28;20054;-51
2022/10/04 01:16:17;;;;;;;9.57;6.20;;;9.40;99.90;;;12.52;56.11;98303.63;5023277;28;20057;-47
2022/10/04 01:18:46;;;;;;;11.17;6.27;;;9.30;99.90;;;12.49;56.58;98300.41;5022681;28;20393;-47
2022/10/04 01:21:30;;;;;;;11.97;6.90;;;9.30;99.90;;;12.47;56.33;98294.38;5022259;28;20056;-50
2022/10/04 01:23:57;;;;;;;13.77;6.55;;;9.30;99.90;;;12.47;56.02;98289.06;5022466;28;20052;-49
2022/10/04 01:26:28;;;;;;;9.97;6.27;;;9.30;99.90;;;12.43;56.22;98291.19;5022367;28;20056;-49
2022/10/04 01:29:15;;;;;;;12.73;5.90;;;9.20;99.90;;;12.39;56.32;98296.00;5023065;28;20042;-48
2022/10/04 01:31:56;;;;;;;9.60;6.10;;;9.20;99.90;;;12.37;56.37;98279.31;5022166;28;20046;-49
2022/10/04 01:34:28;;;;;;;12.27;8.10;;;9.20;99.90;;;12.36;55.98;98282.13;5021895;28;20045;-50
2022/10/04 01:36:59;;;;;;;9.43;5.90;;;9.20;99.90;;;12.35;55.88;98281.28;5023191;28;20050;-46
2022/10/04 01:39:27;;;;;;;12.43;7.10;;;9.20;99.90;;;12.32;56.40;98267.41;5023008;28;20348;-46
2022/10/04 01:41:59;;;;;;;10.57;6.87;;;9.20;99.90;;;12.30;56.69;98270.25;5021729;28;20394;-46
2022/10/04 01:44:47;;;;;;;9.83;5.67;;;9.20;99.90;;;12.32;56.78;98265.56;5022053;28;20171;-50
2022/10/04 01:47:31;;;;;;;14.17;7.10;;;9.30;99.90;;;12.33;57.38;98269.06;5022202;28;20048;-46
2022/10/04 01:50:07;;;;;;;11.40;6.23;;;9.40;99.90;;;12.33;57.08;98263.75;5021849;28;20042;-47
2022/10/04 01:53:00;;;;;;;11.83;6.73;;;9.50;99.90;;;12.35;57.31;98259.09;5021032;28;20248;-49
2022/10/04 01:55:36;;;;;;;10.63;6.20;;;9.50;99.90;;;12.40;57.00;98251.44;5022816;28;20045;-47
2022/10/04 01:58:23;;;;;;;10.93;5.87;;;9.50;99.90;;;12.40;57.46;98254.09;5020992;28;20060;-49
2022/10/04 02:01:18;;;;;;;9.40;6.30;;;9.60;99.90;;;12.39;57.31;98253.28;5021741;28;20052;-46
2022/10/04 02:04:43;;;;;;;10.57;6.30;;;9.60;99.90;;;12.39;57.45;98253.28;5022585;28;20052;-47
2022/10/04 02:07:14;;;;;;;12.15;7.03;;;9.60;99.90;;;12.47;57.17;98254.34;5039922;28;20045;-47
2022/10/04 02:09:46;;;;;;;15.13;6.37;;;9.60;99.90;;;12.43;57.32;98248.47;5022540;28;20058;-49
2022/10/04 02:12:18;;;;;;;9.30;5.70;;;9.60;99.90;;;12.44;57.18;98251.97;5022631;28;20343;-46
2022/10/04 02:14:51;;;;;;;10.57;6.13;;;9.60;99.90;;;12.44;57.33;98258.13;5021557;28;20060;-49
2022/10/04 02:17:28;;;;;;;11.10;6.88;;;9.60;99.90;;;12.48;57.18;98256.00;5021318;28;20059;-48
2022/10/04 02:19:58;;;;;;;11.40;6.83;;;9.60;99.90;;;12.49;57.28;98245.16;5021484;28;20363;-48
2022/10/04 02:22:27;;;;;;;10.03;6.10;;;9.70;99.90;;;12.48;57.22;98245.31;5021254;28;20044;-46
2022/10/04 02:24:56;;;;;;;10.63;5.93;;;9.70;99.90;;;12.49;57.13;98244.34;5022420;28;20356;-48
2022/10/04 02:27:29;;;;;;;8.10;5.43;;;9.70;99.90;;;12.48;57.21;98240.81;5020416;28;20056;-48
2022/10/04 02:30:05;;;;;;;8.90;5.55;;;9.70;99.90;;;12.45;57.14;98242.97;5021378;28;20042;-46
2022/10/04 02:35:46;;;;;;;9.17;5.90;;;9.70;99.90;;;12.48;56.85;98235.47;5022614;28;20050;-50
2022/10/04 02:38:24;;;;;;;10.83;6.20;;;9.60;99.90;;;12.48;56.65;98237.31;5025169;28;20049;-47
2022/10/04 02:41:42;;;;;;;11.13;7.20;;;9.60;99.90;;;12.43;57.00;98236.94;5025274;28;20083;-46
2022/10/04 02:44:51;;;;;;;10.50;5.70;;;9.60;99.90;;;12.46;57.20;98242.78;5041399;28;20041;-48
2022/10/04 02:47:24;;;;;;;8.63;5.83;;;9.60;99.90;;;12.45;56.62;98240.31;5025518;28;20046;-48
2022/10/04 02:50:05;;;;;;;9.00;5.93;;;9.50;99.90;;;12.42;56.85;98244.09;5025106;28;20046;-47
2022/10/04 02:52:45;;;;;;;7.53;5.17;;;9.40;99.90;;;12.45;56.74;98237.63;5025027;28;20366;-47
2022/10/04 02:55:23;;;;;;;8.03;5.93;;;9.50;99.90;;;12.45;56.53;98230.44;5025931;28;20239;-49
2022/10/04 02:57:51;;;;;;;10.83;6.73;;;9.40;99.90;;;12.42;56.61;98233.44;5026200;28;20062;-48
2022/10/04 03:00:31;;;;;;;8.10;5.93;;;9.40;99.90;;;12.45;56.62;98235.78;5024876;28;20053;-46
2022/10/04 03:03:33;;;;;;;9.37;5.83;;;9.50;99.90;;;12.43;56.61;98243.13;5024608;28;20049;-47
2022/10/04 03:06:16;;;;;;;8.37;6.13;;;9.40;99.90;;;12.41;56.58;98227.25;5026058;28;20263;-49
2022/10/04 03:08:49;;;;;;;8.87;6.27;;;9.30;99.90;;;12.41;56.43;98223.75;5025250;28;20055;-46
2022/10/04 03:11:22;;;;;;;7.83;6.07;;;9.30;99.90;;;12.33;56.49;98224.56;5024565;28;20283;-47
2022/10/04 03:13:55;;;;;;;9.60;6.63;;;9.30;99.90;;;12.33;56.13;98229.03;5024625;28;20046;-46
2022/10/04 03:16:24;;;;;;;11.90;6.47;;;9.30;99.90;;;12.27;56.53;98219.84;5025445;28;20041;-46
2022/10/04 03:18:56;;;;;;;10.27;6.53;;;9.20;99.90;;;12.27;56.45;98219.84;5024080;28;20225;-47
2022/10/04 03:21:25;;;;;;;8.40;6.37;;;9.20;99.90;;;12.23;56.35;98217.63;5025379;28;20046;-48
2022/10/04 03:23:53;;;;;;;11.03;6.27;;;9.10;99.90;;;12.19;56.17;98215.28;5025486;28;20046;-50
2022/10/04 03:26:45;;;;;;;13.73;7.43;;;9.00;99.90;;;12.10;55.97;98210.06;5024209;28;20056;-48
2022/10/04 03:29:17;;;;;;;10.70;6.50;;;8.90;99.90;;;12.05;55.94;98209.69;5024088;28;20046;-46
2022/10/04 03:31:57;;;;;;;11.43;7.57;;;8.80;99.90;;;12.04;56.40;98208.00;5023057;28;20240;-46
2022/10/04 03:34:33;;;;;;;13.20;6.67;;;8.80;99.90;;;12.01;56.18;98209.16;5024808;28;20141;-46
2022/10/04 03:37:05;;;;;;;10.70;6.73;;;8.70;99.90;;;11.97;56.39;98210.47;5023834;28;20049;-49
2022/10/04 03:39:40;;;;;;;10.00;6.83;;;8.70;99.90;;;11.95;56.44;98205.28;5023979;28;20070;-50
2022/10/04 03:42:19;;;;;;;10.63;6.90;;;8.70;99.90;;;11.95;56.64;98201.78;5024228;28;20125;-46
2022/10/04 03:44:51;;;;;;;10.50;6.30;;;8.80;99.90;;;11.96;57.03;98200.78;5023385;28;20042;-48
2022/10/04 03:47:29;;;;;;;9.07;7.27;;;8.90;99.90;;;11.95;57.10;98199.94;5023629;28;20048;-47
2022/10/04 03:50:12;;;;;;;9.87;7.37;;;8.90;99.90;;;11.89;57.01;98191.72;5023116;28;20060;-46
2022/10/04 03:52:55;;;;;;;10.87;7.17;;;8.90;99.90;;;11.89;57.14;98192.56;5024038;28;20052;-49
2022/10/04 03:55:32;;;;;;;9.75;6.90;;;8.90;99.90;;;11.92;56.90;98194.06;5023851;28;20042;-46
2022/10/04 03:58:01;;;;;;;9.40;6.57;;;8.90;99.90;;;11.92;57.30;98194.94;5023477;28;20268;-46
2022/10/04 04:00:29;;;;;;;15.47;7.07;;;9.00;99.90;;;11.96;56.96;98190.09;5023516;28;20052;-46
2022/10/04 04:03:02;;;;;;;9.30;6.63;;;9.00;99.90;;;11.96;57.31;98198.97;5024757;28;20046;-47
2022/10/04 04:05:45;;;;;;;10.60;6.38;;;9.10;99.90;;;12.00;57.32;98202.16;5023618;28;20046;-46
2022/10/04 04:08:25;;;;;;;10.63;5.87;;;9.10;99.90;;;12.05;57.16;98199.00;5024216;28;20042;-47
2022/10/04 04:11:00;;;;;;;11.93;7.07;;;9.10;99.90;;;12.00;57.24;98197.66;5024396;28;20049;-47
2022/10/04 04:13:49;;;;;;;9.57;6.10;;;9.20;99.90;;;12.00;57.18;98199.50;5007527;28;20373;-50
2022/10/04 04:16:24;;;;;;;9.37;6.13;;;9.20;99.90;;;12.01;57.22;98198.47;5024421;28;20064;-48
2022/10/04 04:18:58;;;;;;;12.80;6.40;;;9.20;99.90;;;11.99;56.99;98192.47;5024190;28;20348;-48
2022/10/04 04:21:28;;;;;;;12.55;7.22;;;9.10;99.90;;;11.99;57.14;98189.81;5023156;28;20054;-47
2022/10/04 04:24:01;;;;;;;12.23;6.57;;;9.00;99.90;;;11.96;57.34;98190.97;5022803;28;20236;-47
2022/10/04 04:26:44;;;;;;;9.25;6.70;;;9.00;99.90;;;11.97;56.85;98189.13;5022891;28;20046;-47
2022/10/04 04:29:31;;;;;;;12.57;6.30;;;9.00;99.90;;;11.98;57.01;98185.44;5023151;28;20344;-50
2022/10/04 04:32:12;;;;;;;10.17;6.63;;;9.00;99.90;;;11.97;56.69;98189.94;5024308;28;20048;-48
2022/10/04 04:34:57;;;;;;;9.60;6.47;;;8.90;99.90;;;11.92;57.01;98183.41;5023038;28;20046;-49
2022/10/04 04:37:25;;;;;;;10.20;6.17;;;8.90;99.90;;;11.87;56.67;98181.19;5023706;28;20056;-50
2022/10/04 04:39:54;;;;;;;10.63;5.87;;;8.80;99.90;;;11.82;56.67;98186.13;5024335;28;20060;-47
2022/10/04 04:42:33;;;;;;;9.27;6.77;;;8.70;99.90;;;11.83;56.53;98188.66;5023788;28;20056;-50
2022/10/04 04:45:14;;;;;;;11.63;6.00;;;8.70;99.90;;;11.88;56.65;98195.34;5023649;28;20465;-52
2022/10/04 04:47:55;;;;;;;12.97;6.73;;;8.70;99.90;;;11.89;56.46;98194.38;5022331;28;20058;-49
2022/10/04 04:50:35;;;;;;;13.27;7.03;;;8.80;99.90;;;11.92;56.36;98212.75;5023652;28;20048;-49
2022/10/04 04:53:14;;;;;;;14.83;6.73;;;8.80;99.90;;;11.83;56.27;98217.19;5022839;28;20055;-47
2022/10/04 04:55:56;;;;;;;14.27;6.53;;;8.70;99.90;;;11.75;56.66;98225.94;5024282;28;20046;-48
2022/10/04 04:58:36;;;;;;;11.70;6.33;;;8.50;99.90;;;11.68;56.16;98235.56;5022355;28;20042;-47
2022/10/04 05:01:22;;;;;;;9.70;6.10;;;8.40;99.90;;;11.64;56.39;98236.84;5021692;28;20046;-48
2022/10/04 05:04:08;;;;;;;13.00;6.53;;;8.30;99.90;;;11.63;56.76;98230.69;5022522;28;20398;-49
2022/10/04 05:06:45;;;;;;;10.67;7.20;;;8.40;99.90;;;11.67;56.70;98233.03;5023340;28;20054;-47
2022/10/04 05:09:27;;;;;;;11.40;6.17;;;8.50;99.90;;;11.70;56.62;98228.22;5023494;28;20042;-49
2022/10/04 05:12:07;;;;;;;12.30;5.53;;;8.60;99.90;;;11.71;56.43;98226.41;5023346;28;20048;-47
2022/10/04 05:14:44;;;;;;;13.87;6.17;;;8.60;99.90;;;11.74;56.75;98218.94;5023725;28;20221;-47
2022/10/04 05:17:30;;;;;;;11.90;6.40;;;8.60;99.90;;;11.75;56.86;98222.47;5021963;28;20056;-51
2022/10/04 05:20:00;;;;;;;12.40;6.60;;;8.60;99.90;;;11.73;57.00;98229.75;5022368;28;20054;-49
2022/10/04 05:22:30;;;;;;;9.70;6.17;;;8.60;99.90;;;11.73;56.94;98230.59;5023976;28;20244;-50
2022/10/04 05:25:08;;;;;;;10.00;6.60;;;8.50;99.90;;;11.74;56.45;98231.44;5023068;28;20046;-48
2022/10/04 05:27:43;;;;;;;9.83;6.90;;;8.50;99.90;;;11.75;56.38;98233.13;5021722;28;20045;-51
2022/10/04 05:30:49;;;;;;;10.23;7.07;;;8.50;99.90;;;11.75;56.33;98239.28;5023133;28;20050;-48
2022/10/04 05:33:35;;;;;;;13.03;7.47;;;8.60;99.90;;;11.79;56.08;98227.31;5024856;28;20046;-51
2022/10/04 05:36:09;;;;;;;11.30;6.20;;;8.60;99.90;;;11.81;56.38;98229.84;5023074;28;20045;-48
2022/10/04 05:38:50;;;;;;;11.15;5.88;;;8.70;99.90;;;11.79;56.50;98229.97;5022916;28;20228;-49
2022/10/04 05:41:47;;;;;;;8.33;5.53;;;8.60;99.90;;;11.79;56.81;98223.81;5021909;28;20052;-47
2022/10/04 05:44:55;;;;;;;9.93;5.70;;;8.70;99.90;;;11.76;56.73;98216.94;5021953;28;20045;-46
2022/10/04 05:47:29;;;;;;;9.83;4.40;;;8.70;99.90;;;11.80;57.17;98222.81;5024064;28;20058;-48
2022/10/04 05:49:58;;;;;;;7.50;5.22;;;8.70;99.90;;;11.77;56.89;98229.31;5021777;28;20046;-47
2022/10/04 05:52:35;;;;;;;8.67;4.87;;;8.70;99.90;;;11.80;56.98;98239.66;5021121;28;20056;-49
2022/10/04 05:55:15;;;;;;;10.20;6.13;;;8.70;99.90;;;11.82;57.33;98231.50;5023062;28;20053;-49
2022/10/04 05:58:17;;;;;;;10.10;6.00;;;8.70;99.90;;;11.86;56.95;98234.69;5022393;28;20046;-49
2022/10/04 06:01:16;;;;;;;11.23;6.27;;;8.70;99.90;;;11.88;57.21;98233.53;5022767;28;20049;-49
2022/10/04 06:04:08;;;;;;;10.97;6.67;;;8.80;99.90;;;11.89;56.77;98231.72;5022590;28;20370;-47
2022/10/04 06:06:48;;;;;;;7.40;5.20;;;8.80;99.90;;;11.90;56.81;98230.75;5021132;28;20248;-49
2022/10/04 06:09:27;;;;;;;9.70;4.87;;;8.70;99.90;;;11.87;57.00;98231.06;5022968;28;20056;-50
2022/10/04 06:12:28;;;;;;;11.17;6.23;;;8.70;99.90;;;11.87;56.98;98218.53;5021195;28;20048;-49
2022/10/04 06:15:51;;;;;;;9.90;5.17;;;8.70;99.90;;;11.85;56.72;98223.19;5022606;28;20056;-49
2022/10/04 06:19:06;;;;;;;10.53;6.03;;;8.70;99.90;;;11.83;56.84;98231.34;5020995;28;20056;-52
2022/10/04 06:22:08;;;;;;;9.95;5.72;;;8.70;99.90;;;11.89;56.93;98223.72;5040311;28;20057;-49
2022/10/04 06:24:40;;;;;;;9.83;6.30;;;8.70;99.90;;;11.93;56.94;98223.28;5021284;28;20340;-50
2022/10/04 06:27:30;;;;;;;11.37;5.97;;;8.70;99.90;;;11.97;57.29;98227.31;5021972;28;20235;-51
2022/10/04 06:30:15;;;;;;;7.53;5.73;;;8.80;99.90;;;12.04;56.83;98224.00;5022344;28;20041;-48
2022/10/04 06:33:15;;;;;;;10.93;6.67;;;8.90;99.90;;;12.07;56.84;98221.88;5020376;28;20045;-50
2022/10/04 06:36:16;;;;;;;16.07;8.03;;;9.00;99.90;;;12.14;57.19;98222.09;5020603;28;20239;-49
2022/10/04 06:39:18;;;;;;;25.13;9.10;;;9.00;99.90;;;12.19;57.25;98223.31;5021892;28;20060;-49
2022/10/04 06:41:46;;;;;;;21.30;8.97;;;9.10;99.90;;;12.28;57.13;98229.50;5022210;28;20054;-49
2022/10/04 06:45:20;;;;;;;20.37;9.97;;;9.20;99.90;;;12.35;57.04;98221.72;5022286;28;20067;-48
2022/10/04 06:48:05;;;;;;;22.63;9.07;;;9.30;99.90;;;12.47;56.89;98224.97;5021891;28;20056;-51
2022/10/04 06:51:08;;;;;;;23.10;7.50;;;9.40;99.90;;;12.49;56.75;98215.78;5021044;28;20048;-51
2022/10/04 06:53:50;;;;;;;16.67;7.53;;;9.50;99.90;;;12.57;56.77;98212.31;5021465;28;20050;-50
2022/10/04 06:56:39;;;;;;;13.33;6.60;;;9.60;99.90;;;12.64;56.81;98224.03;5022342;28;20049;-50
2022/10/04 06:59:34;;;;;;;14.43;6.40;;;9.70;99.90;;;12.63;56.98;98222.34;5020838;28;20252;-48
2022/10/04 07:02:39;;;;;;;11.95;6.40;;;9.70;99.90;;;12.76;57.21;98229.94;5022115;28;20367;-51
2022/10/04 07:05:49;;;;;;;11.03;6.80;;;9.80;99.90;;;12.84;57.18;98234.47;5022154;28;20057;-51
2022/10/04 07:08:48;;;;;;;14.53;7.17;;;9.90;99.90;;;12.94;56.81;98235.16;5022237;28;20059;-49
2022/10/04 07:11:52;;;;;;;12.37;6.27;;;10.00;99.90;;;13.02;56.58;98231.69;5021808;28;20046;-48
2022/10/04 07:14:29;;;;;;;8.23;5.27;;;10.00;99.90;;;13.10;56.57;98231.72;5021170;28;20355;-50
2022/10/04 07:17:20;;;;;;;10.53;6.43;;;10.10;99.90;;;13.17;56.66;98235.41;5020406;28;20056;-46
2022/10/04 07:19:50;;;;;;;13.37;6.40;;;10.20;99.90;;;13.23;56.80;98231.25;5020526;28;20046;-48
2022/10/04 07:22:46;;;;;;;8.20;5.33;;;10.20;99.90;;;13.28;56.57;98240.47;5020666;28;20244;-48
2022/10/04 07:25:32;;;;;;;11.53;5.93;;;10.30;99.90;;;13.32;56.65;98244.50;5024560;28;20041;-49
2022/10/04 07:31:21;;;;;;;13.00;7.07;;;10.40;99.90;;;13.41;56.75;98253.38;5025324;28;20042;-48
2022/10/04 07:33:59;;;;;;;11.20;6.68;;;10.40;99.90;;;13.47;56.49;98258.06;5024254;28;20072;-47
2022/10/04 07:36:56;;;;;;;8.70;6.60;;;10.40;99.90;;;13.52;56.85;98266.44;5023891;28;20225;-48
2022/10/04 07:39:49;;;;;;;8.87;6.00;;;10.50;99.90;;;13.59;56.62;98272.81;5024233;28;20056;-50
2022/10/04 07:42:53;;;;;;;11.33;6.57;;;10.50;99.90;;;13.64;56.24;98272.28;5024020;28;20050;-46
2022/10/04 07:45:29;;;;;;;9.27;5.57;;;10.60;99.90;;;13.73;56.19;98282.00;5023777;28;20060;-47
2022/10/04 07:48:22;;;;;;;12.03;7.13;;;10.70;99.90;;;13.72;56.34;98279.50;5023481;28;20366;-50
2022/10/04 07:51:28;;;;;;;9.03;6.33;;;10.80;99.90;;;13.75;56.18;98277.31;5025175;28;20045;-48
2022/10/04 07:54:17;;;;;;;8.27;4.43;;;10.90;99.90;;;13.79;56.06;98259.94;5023968;28;20267;-49
2022/10/04 07:57:01;;;;;;;11.37;5.40;;;10.90;99.90;;;13.83;56.02;98265.78;5024816;28;20046;-51
2022/10/04 07:59:56;;;;;;;6.50;5.07;;;11.00;99.90;;;13.91;56.12;98262.28;5023759;28;20052;-51
2022/10/04 08:02:38;;;;;;;9.67;5.33;;;11.00;99.90;;;13.94;56.06;98268.13;5024806;28;20056;-50
2022/10/04 08:05:12;;;;;;;11.03;6.47;;;11.00;99.90;;;13.97;55.92;98270.47;5024648;28;20340;-49
2022/10/04 08:08:23;;;;;;;7.65;5.43;;;11.00;99.90;;;13.98;55.88;98268.66;5022911;28;20243;-50
2022/10/04 08:10:50;;;;;;;7.70;5.45;;;11.10;99.90;;;14.00;55.72;98269.31;5025189;28;20248;-51
2022/10/04 08:13:32;;;;;;;8.70;5.23;;;11.00;99.90;;;14.00;55.94;98272.00;5024436;28;20235;-51
2022/10/04 08:16:16;;;;;;;13.15;7.93;;;11.00;99.90;;;14.01;56.13;98256.75;5024626;28;20060;-50
2022/10/04 08:19:24;;;;;;;8.68;6.38;;;11.10;99.90;;;14.03;56.16;98252.91;5022880;28;20050;-48
2022/10/04 08:22:14;;;;;;;10.27;6.53;;;11.10;99.90;;;14.07;56.00;98253.41;5024878;28;20053;-51
2022/10/04 08:24:54;;;;;;;8.70;6.67;;;11.00;99.90;;;14.06;56.00;98259.78;5024828;28;20052;-48
2022/10/04 08:27:38;;;;;;;11.73;6.82;;;11.00;99.90;;;14.05;56.19;98255.41;5023806;28;20042;-51
2022/10/04 08:30:15;;;;;;;12.30;6.00;;;11.10;99.90;;;14.11;56.03;98252.91;5024010;28;20037;-50
2022/10/04 08:33:30;;;;;;;8.30;5.97;;;11.20;99.90;;;14.12;56.26;98249.22;5022934;28;20052;-51
2022/10/04 08:36:03;;;;;;;9.63;5.60;;;11.20;99.90;;;14.16;56.05;98247.88;5023082;28;20073;-48
2022/10/04 08:38:36;;;;;;;8.68;5.38;;;11.20;99.90;;;14.16;56.00;98247.03;5023736;28;20046;-52
2022/10/04 08:41:07;;;;;;;10.87;6.57;;;11.30;99.90;;;14.18;56.08;98253.06;5023082;28;20042;-49
2022/10/04 08:44:07;;;;;;;9.43;5.77;;;11.30;99.90;;;14.22;56.12;98257.06;5024181;28;20256;-47
2022/10/04 08:46:59;;;;;;;9.90;6.00;;;11.40;99.90;;;14.28;55.70;98259.06;5029137;28;20275;-50
2022/10/04 08:50:43;;;;;;;10.77;5.73;;;11.40;99.90;;;14.28;55.80;98269.78;5024024;28;20061;-49
2022/10/04 08:53:20;;;;;;;8.95;5.07;;;11.40;99.90;;;14.33;55.84;98271.97;5041696;28;20041;-50
2022/10/04 08:56:37;;;;;;;11.07;5.73;;;11.50;99.90;;;14.35;56.10;98265.44;5041495;28;20336;-49
2022/10/04 08:59:18;;;;;;;8.93;5.78;;;11.50;99.90;;;14.43;56.05;98266.44;5025718;28;20072;-48
2022/10/04 09:02:05;;;;;;;11.97;5.90;;;11.60;99.90;;;14.48;56.17;98266.72;5023352;28;20046;-49
2022/10/04 09:05:20;;;;;;;11.90;6.10;;;11.60;99.90;;;14.57;56.22;98268.41;5023678;28;20045;-47
2022/10/04 09:08:32;;;;;;;10.30;6.35;;;11.70;99.90;;;14.66;56.30;98278.13;5036094;28;20056;-51
2022/10/04 09:11:18;;;;;;;7.85;5.28;;;11.90;99.90;;;14.74;56.13;98272.72;5038073;28;20059;-51
2022/10/04 09:14:30;;;;;;;8.73;7.00;;;11.90;99.90;;;14.84;56.23;98269.00;5023442;28;20048;-51
2022/10/04 09:17:22;;;;;;;11.15;6.72;;;12.00;99.90;;;14.94;56.56;98265.09;5027011;28;20061;-50
2022/10/04 09:20:08;;;;;;;10.40;6.72;;;12.20;99.90;;;15.02;56.39;98272.28;5023418;28;20064;-50
2022/10/04 09:23:29;;;;;;;13.07;7.60;;;12.20;99.90;;;15.10;56.34;98269.59;5023705;28;20311;-47
2022/10/04 09:26:27;;;;;;;9.15;6.78;;;12.40;99.90;;;15.20;56.53;98268.50;5023146;28;20049;-51
2022/10/04 09:29:41;;;;;;;10.38;7.25;;;12.40;99.90;;;15.27;56.50;98261.44;5021997;28;20045;-51
2022/10/04 09:32:46;;;;;;;10.05;6.05;;;12.50;99.90;;;15.32;55.85;98254.53;5023099;28;20045;-49
2022/10/04 09:35:17;;;;;;;8.68;6.30;;;12.60;99.90;;;15.33;55.84;98250.00;5019592;28;20049;-52
2022/10/04 09:38:31;;;;;;;10.60;5.93;;;12.60;99.90;;;15.37;56.14;98245.94;5022959;28;20056;-50
2022/10/04 09:41:29;;;;;;;10.20;5.70;;;12.70;99.90;;;15.48;55.93;98248.22;5022169;28;20042;-48
2022/10/04 09:44:03;;;;;;;9.50;6.20;;;12.80;99.90;;;15.52;56.06;98246.84;5023325;28;20264;-49
2022/10/04 09:47:06;;;;;;;;;;;12.80;99.90;;;15.67;55.81;98241.56;5022292;28;20044;-48
2022/10/04 09:50:25;;;;;;;8.60;5.50;;;12.90;99.90;;;15.65;55.54;98248.97;5022037;28;19923;-50
2022/10/04 09:53:30;;;;;;;9.15;5.53;;;12.90;99.90;;;15.58;55.82;98237.25;5023034;28;20063;-48
2022/10/04 09:56:41;;;;;;;10.25;6.60;;;12.90;99.90;;;15.55;56.29;98251.88;5022806;28;20067;-48
2022/10/04 09:59:45;;;;;;;9.43;5.70;;;13.00;99.90;;;15.64;56.16;98249.13;5023146;28;20046;-48
2022/10/04 10:02:27;;;;;;;9.68;5.68;;;13.00;99.90;;;15.74;56.14;98247.06;5022690;28;20052;-49
2022/10/04 10:05:34;;;;;;;9.77;5.93;;;13.10;99.90;;;15.77;55.96;98240.53;5021836;28;20045;-49
2022/10/04 10:08:32;;;;;;;7.65;5.28;;;13.10;99.90;;;15.84;55.91;98253.06;5021214;28;20109;-50
2022/10/04 10:14:44;;;;;;;9.57;4.45;;;13.30;99.90;;;16.00;55.39;98262.81;5022449;28;20056;-50
2022/10/04 10:17:44;;;;;;;7.10;3.88;;;13.30;99.90;;;16.06;55.24;98258.56;5022175;28;20053;-50
2022/10/04 10:20:15;;;;;;;9.68;5.10;;;13.40;99.90;;;16.12;55.18;98260.53;5022657;28;20396;-49
2022/10/04 10:23:16;;;;;;;4.85;4.28;;;13.50;99.90;;;16.18;55.49;98249.06;5022372;28;20052;-51
2022/10/04 10:26:14;;;;;;;6.50;3.97;;;13.60;99.90;;;16.29;55.23;98254.00;5022354;28;20048;-50
2022/10/04 10:29:15;;;;;;;6.38;4.25;;;13.60;99.90;;;16.37;54.92;98252.25;5022790;28;20049;-51
2022/10/04 10:32:00;;;;;;;7.50;4.38;;;13.70;99.90;;;16.41;54.63;98256.22;5022375;28;20064;-49
2022/10/04 10:35:15;;;;;;;7.13;3.70;;;13.70;99.20;;;16.46;54.98;98259.19;5022375;28;20243;-52
2022/10/04 10:37:51;;;;;;;8.15;4.70;;;13.80;98.10;;;16.54;54.53;98249.19;5022287;28;20325;-50
2022/10/04 10:40:22;;;;;;;7.88;4.20;;;13.80;99.30;;;16.57;54.37;98248.00;5022367;28;20045;-48
2022/10/04 10:43:06;;;;;;;8.07;4.22;;;13.90;98.90;;;16.62;54.58;98248.28;5021893;28;20044;-50
2022/10/04 10:45:54;;;;;;;6.70;5.00;;;14.00;98.60;;;16.68;54.58;98244.84;5021891;28;20050;-51
2022/10/04 10:49:08;;;;;;;10.23;4.95;;;14.10;97.80;;;16.74;54.59;98236.03;5022102;28;20052;-52
2022/10/04 10:52:24;;;;;;;7.88;4.85;;;14.10;99.40;;;16.84;54.58;98243.00;5021398;28;20046;-52
2022/10/04 10:55:28;;;;;;;7.60;3.80;;;14.20;97.50;;;16.92;54.43;98229.47;5021134;28;20046;-51
2022/10/04 10:58:37;;;;;;;5.75;4.10;;;14.30;96.50;;;17.02;54.37;98237.25;5021727;28;20244;-49
2022/10/04 11:01:47;;;;;;;8.88;4.38;;;14.40;97.70;;;17.11;54.47;98234.25;5043747;28;20072;-51
2022/10/04 11:05:25;;;;;;;4.53;2.97;;;14.50;96.50;;;17.21;54.33;98239.34;5043550;28;20063;-51
2022/10/04 11:07:54;;;;;;;6.47;3.95;;;14.60;97.30;;;17.34;53.83;98237.84;4973457;28;20269;-52
2022/10/04 11:11:03;;;;;;;8.45;3.75;;;14.70;96.90;;;17.38;54.13;98237.25;4984792;28;20061;-50
2022/10/04 11:14:11;;;;;;;4.70;3.50;;;14.80;94.70;;;17.45;53.80;98229.28;5025719;28;20050;-50
2022/10/04 11:17:37;;;;;;;6.72;3.72;;;14.80;94.00;;;17.54;53.60;98232.66;5027561;28;20050;-51
2022/10/04 11:20:48;;;;;;;4.88;2.70;;;14.90;92.80;;;17.62;53.54;98233.38;5026599;28;20052;-49
2022/10/04 11:23:45;;;;;;;5.90;3.28;;;15.00;93.20;;;17.69;53.30;98220.78;5025501;28;20049;-50
2022/10/04 11:26:37;;;;;;;4.47;2.90;;;15.10;94.20;;;17.78;52.81;98215.31;5025446;28;20072;-50
2022/10/04 11:29:22;;;;;;;5.10;3.33;;;15.20;92.90;;;17.80;52.93;98208.69;5025261;28;20042;-50
2022/10/04 11:32:25;;;;;;;7.88;3.70;;;15.20;92.30;;;17.83;52.86;98210.97;5024787;28;20347;-51
2022/10/04 11:35:26;;;;;;;7.00;4.30;;;15.20;92.00;;;17.90;52.90;98208.38;5026064;28;20053;-52
2022/10/04 11:38:34;;;;;;;5.75;2.95;;;15.30;90.10;;;17.96;52.92;98202.22;5024874;28;20052;-53
2022/10/04 11:41:24;;;;;;;8.32;3.25;;;15.30;90.80;;;18.04;52.43;98198.53;5026370;28;20356;-52
2022/10/04 11:44:30;;;;;;;7.05;3.83;;;15.40;88.90;;;18.11;52.48;98194.06;5025126;28;20052;-53
2022/10/04 11:46:59;;;;;;;5.47;2.75;;;15.50;88.10;;;18.18;51.60;98184.13;5023687;28;20045;-52
2022/10/04 11:50:01;;;;;;;5.57;2.95;;;15.50;88.70;;;18.26;52.04;98188.53;5023870;28;20049;-52
2022/10/04 11:52:50;;;;;;;6.68;3.30;;;15.70;85.20;;;18.36;51.60;98182.78;5025111;28;20054;-52